Time;durP1;ratioP1;P1;durP2;ratioP2;P2;SDS_P1;SDS_P2;PMS_P1;PMS_P2;Temp;Humidity;BMP_temperature;BMP_pressure;BME280_temperature;BME280_humidity;BME280_pressure;Samples;Min_cycle;Max_cycle;Signal;HPM_P1;HPM_P2
2021/09/14 00:01:00;;;;;;;3.87;3.57;;;13.50;99.90;;;;;;485918;243;28293;-70
2021/09/14 00:03:02;;;;;;;3.13;2.93;;;13.50;99.90;;;;;;485898;243;28530;-70
2021/09/14 00:05:03;;;;;;;2.97;2.77;;;13.50;99.90;;;;;;485834;243;28302;-70
2021/09/14 00:07:06;;;;;;;3.33;3.00;;;;;;;;;;485841;243;29169;-70
2021/09/14 00:09:07;;;;;;;2.93;2.73;;;13.40;99.90;;;;;;485873;243;26399;-70
2021/09/14 00:11:08;;;;;;;3.20;3.00;;;13.40;99.90;;;;;;485860;243;28269;-70
2021/09/14 00:13:09;;;;;;;4.10;3.10;;;13.40;99.90;;;;;;485845;243;28215;-70
2021/09/14 00:15:10;;;;;;;3.57;3.27;;;13.40;99.90;;;;;;485867;243;28658;-70
2021/09/14 00:17:12;;;;;;;3.10;2.90;;;13.40;99.90;;;;;;485860;243;28730;-70
2021/09/14 00:19:13;;;;;;;3.70;3.40;;;13.30;99.90;;;;;;485856;243;28822;-70
2021/09/14 00:21:15;;;;;;;3.17;2.97;;;13.30;99.90;;;;;;485861;243;28767;-70
2021/09/14 00:23:15;;;;;;;4.73;2.97;;;13.30;99.90;;;;;;485802;243;28789;-70
2021/09/14 00:25:17;;;;;;;3.43;3.13;;;13.30;99.90;;;;;;485902;243;28787;-70
2021/09/14 00:27:18;;;;;;;3.33;3.13;;;13.30;99.90;;;;;;485904;243;28065;-70
2021/09/14 00:29:19;;;;;;;3.67;3.33;;;13.30;99.90;;;;;;485893;243;28851;-70
2021/09/14 00:31:20;;;;;;;3.57;3.30;;;13.30;99.90;;;;;;485908;243;28171;-70
2021/09/14 00:33:22;;;;;;;3.83;3.53;;;13.30;99.90;;;;;;485881;243;28122;-70
2021/09/14 00:35:23;;;;;;;4.13;3.33;;;13.30;99.90;;;;;;485887;243;28332;-70
2021/09/14 00:37:24;;;;;;;3.17;2.97;;;13.30;99.90;;;;;;485897;243;28717;-71
2021/09/14 00:39:25;;;;;;;3.60;3.30;;;13.40;99.90;;;;;;485893;243;28307;-70
2021/09/14 00:41:27;;;;;;;3.30;3.10;;;13.40;99.90;;;;;;485897;243;28722;-70
2021/09/14 00:43:28;;;;;;;3.20;3.00;;;13.30;99.90;;;;;;485887;243;28661;-70
2021/09/14 00:45:30;;;;;;;3.40;3.20;;;;;;;;;;485765;243;28743;-70
2021/09/14 00:47:32;;;;;;;3.27;3.07;;;13.30;99.90;;;;;;485856;243;26968;-70
2021/09/14 00:49:33;;;;;;;3.70;3.40;;;13.30;99.90;;;;;;485884;243;28296;-70
2021/09/14 00:51:34;;;;;;;3.50;3.20;;;13.30;99.90;;;;;;485855;243;28234;-70
2021/09/14 00:53:35;;;;;;;3.40;3.10;;;13.20;99.90;;;;;;485894;243;28927;-71
2021/09/14 00:55:37;;;;;;;3.80;3.50;;;13.20;99.90;;;;;;485873;243;28654;-69
2021/09/14 00:57:38;;;;;;;3.37;3.17;;;13.10;99.90;;;;;;485902;243;28596;-70
2021/09/14 00:59:39;;;;;;;3.43;3.23;;;13.10;99.90;;;;;;485882;243;29185;-70
2021/09/14 01:01:40;;;;;;;3.37;3.07;;;13.10;99.90;;;;;;485930;243;28559;-71
2021/09/14 03:10:08;;;;;;;3.23;3.03;;;12.10;99.90;;;;;;484855;245;27863;-70
2021/09/14 03:12:10;;;;;;;4.20;3.83;;;12.10;99.90;;;;;;484796;244;27959;-70
2021/09/14 03:14:11;;;;;;;3.93;3.63;;;12.10;99.90;;;;;;484812;244;28638;-70
2021/09/14 03:16:12;;;;;;;4.00;3.70;;;12.10;99.90;;;;;;484818;244;28446;-70
2021/09/14 03:18:13;;;;;;;3.90;3.60;;;12.10;99.90;;;;;;484831;244;28744;-70
2021/09/14 03:20:15;;;;;;;3.90;3.60;;;12.00;99.90;;;;;;484806;244;27969;-70
2021/09/14 03:22:16;;;;;;;3.70;3.40;;;12.00;99.90;;;;;;484811;244;28269;-70
2021/09/14 03:24:17;;;;;;;3.77;3.47;;;11.90;99.90;;;;;;484821;244;28126;-70
2021/09/14 03:26:18;;;;;;;4.03;3.40;;;11.90;99.90;;;;;;484810;244;28123;-70
2021/09/14 03:28:20;;;;;;;3.60;3.30;;;11.90;99.90;;;;;;484810;244;28127;-70
2021/09/14 03:30:21;;;;;;;3.60;3.30;;;12.00;99.90;;;;;;484826;244;28054;-70
2021/09/14 03:32:22;;;;;;;3.50;3.30;;;11.90;99.90;;;;;;484812;244;28027;-70
2021/09/14 03:34:23;;;;;;;4.10;3.77;;;11.90;99.90;;;;;;484826;244;28221;-70
2021/09/14 03:36:25;;;;;;;3.77;3.47;;;11.90;99.90;;;;;;484813;244;28170;-70
2021/09/14 03:38:26;;;;;;;3.30;3.10;;;11.90;99.90;;;;;;484819;244;28488;-70
2021/09/14 03:40:27;;;;;;;3.60;3.30;;;11.90;99.90;;;;;;484841;244;29526;-70
2021/09/14 03:42:28;;;;;;;3.90;3.60;;;11.90;99.90;;;;;;484821;244;28732;-69
2021/09/14 03:44:30;;;;;;;3.57;3.27;;;11.90;99.90;;;;;;484814;244;28596;-70
2021/09/14 03:46:31;;;;;;;3.70;3.40;;;11.90;99.90;;;;;;484777;244;28095;-70
2021/09/14 03:48:33;;;;;;;3.73;3.43;;;11.90;99.90;;;;;;484804;244;28325;-70
2021/09/14 03:50:33;;;;;;;3.70;3.40;;;11.90;99.90;;;;;;484790;244;28221;-70
2021/09/14 03:52:35;;;;;;;3.40;3.10;;;11.90;99.90;;;;;;484788;244;28366;-70
2021/09/14 03:54:36;;;;;;;4.00;3.70;;;11.90;99.90;;;;;;484650;244;28159;-70
2021/09/14 03:56:37;;;;;;;3.53;3.23;;;11.90;99.90;;;;;;484818;244;28164;-70
2021/09/14 03:58:38;;;;;;;3.37;3.17;;;11.90;99.90;;;;;;484822;244;28077;-70
2021/09/14 04:00:40;;;;;;;3.70;3.40;;;11.80;99.90;;;;;;484826;244;28343;-71
2021/09/14 04:02:55;;;;;;;4.20;3.53;;;11.80;99.90;;;;;;484779;244;28305;-70
2021/09/14 04:05:03;;;;;;;3.60;3.30;;;11.80;99.90;;;;;;483973;245;28268;-70
2021/09/14 04:07:02;;;;;;;3.90;3.50;;;11.70;99.90;;;;;;483558;245;28256;-69
2021/09/14 04:08:57;;;;;;;3.77;3.47;;;11.70;99.90;;;;;;484308;245;28573;-70
2021/09/14 04:10:58;;;;;;;4.23;3.93;;;11.70;99.90;;;;;;484790;244;28626;-70
2021/09/14 04:12:59;;;;;;;3.97;3.67;;;11.70;99.90;;;;;;484810;244;28553;-70
2021/09/14 04:15:00;;;;;;;3.87;3.50;;;11.70;99.90;;;;;;484838;244;28710;-70
2021/09/14 04:17:02;;;;;;;3.57;3.27;;;11.70;99.90;;;;;;484811;244;28197;-70
2021/09/14 04:19:03;;;;;;;3.73;3.43;;;11.70;99.90;;;;;;484841;244;28230;-70
2021/09/14 04:21:05;;;;;;;5.40;3.60;;;11.70;99.90;;;;;;484823;244;27963;-70
2021/09/14 04:23:05;;;;;;;4.00;3.70;;;11.70;99.90;;;;;;484812;244;27968;-70
2021/09/14 04:25:07;;;;;;;4.03;3.63;;;11.70;99.90;;;;;;484807;244;28134;-70
2021/09/14 04:27:08;;;;;;;3.80;3.50;;;11.70;99.90;;;;;;484842;244;28100;-70
2021/09/14 04:29:09;;;;;;;3.60;3.40;;;11.60;99.90;;;;;;484819;244;28196;-70
2021/09/14 04:31:10;;;;;;;3.97;3.67;;;11.60;99.90;;;;;;484793;244;28248;-70
2021/09/14 04:33:12;;;;;;;4.10;3.80;;;11.60;99.90;;;;;;484790;244;28711;-70
2021/09/14 04:35:13;;;;;;;4.50;4.13;;;11.60;99.90;;;;;;484838;244;28814;-70
2021/09/14 04:37:14;;;;;;;4.10;3.80;;;11.50;99.90;;;;;;484779;244;28675;-70
2021/09/14 04:39:15;;;;;;;4.20;3.90;;;11.50;99.90;;;;;;484842;244;28623;-70
2021/09/14 04:41:17;;;;;;;3.90;3.60;;;11.50;99.90;;;;;;484794;244;27951;-70
2021/09/14 04:43:18;;;;;;;3.83;3.53;;;11.50;99.90;;;;;;484848;244;28082;-70
2021/09/14 04:45:19;;;;;;;3.90;3.60;;;11.60;99.90;;;;;;484789;244;28111;-70
2021/09/14 04:47:20;;;;;;;4.40;4.00;;;11.60;99.90;;;;;;484813;244;28000;-70
2021/09/14 04:49:22;;;;;;;4.47;4.07;;;11.50;99.90;;;;;;484817;244;28027;-70
2021/09/14 04:51:23;;;;;;;3.90;3.60;;;11.50;99.90;;;;;;484825;244;28011;-70
2021/09/14 04:53:24;;;;;;;4.00;3.70;;;11.50;99.90;;;;;;484838;244;28121;-70
2021/09/14 04:55:25;;;;;;;4.20;3.90;;;11.50;99.90;;;;;;484871;244;28109;-70
2021/09/14 04:57:27;;;;;;;4.07;3.77;;;11.50;99.90;;;;;;484855;244;27862;-70
2021/09/14 04:59:28;;;;;;;4.30;4.00;;;11.50;99.90;;;;;;484855;244;28383;-70
2021/09/14 05:01:29;;;;;;;4.70;4.30;;;11.50;99.90;;;;;;484838;244;28497;-70
2021/09/14 05:03:30;;;;;;;4.03;3.73;;;11.50;99.90;;;;;;484837;244;28678;-70
2021/09/14 05:05:32;;;;;;;4.30;4.00;;;11.50;99.90;;;;;;484848;244;28117;-70
2021/09/14 05:07:33;;;;;;;4.53;4.20;;;11.50;99.90;;;;;;484806;244;28195;-70
2021/09/14 05:09:34;;;;;;;4.40;4.00;;;11.50;99.90;;;;;;484847;244;28145;-70
2021/09/14 05:11:35;;;;;;;4.30;3.90;;;11.40;99.90;;;;;;484847;244;28114;-70
2021/09/14 05:13:37;;;;;;;4.20;3.90;;;11.50;99.90;;;;;;484802;245;27946;-70
2021/09/14 05:15:38;;;;;;;4.50;4.10;;;11.50;99.90;;;;;;484822;244;28043;-70
2021/09/14 05:17:39;;;;;;;4.40;4.10;;;11.50;99.90;;;;;;484851;244;28044;-70
2021/09/14 05:19:42;;;;;;;4.83;4.20;;;11.50;99.90;;;;;;484826;244;27964;-70
2021/09/14 05:21:46;;;;;;;4.53;3.97;;;11.60;99.90;;;;;;484790;244;28118;-70
2021/09/14 05:23:46;;;;;;;3.43;3.20;;;11.60;99.90;;;;;;484721;245;28175;-70
2021/09/14 05:25:47;;;;;;;4.40;4.00;;;11.60;99.90;;;;;;484802;244;28092;-70
2021/09/14 05:27:48;;;;;;;4.23;3.50;;;11.60;99.90;;;;;;484827;244;28221;-70
2021/09/14 05:29:50;;;;;;;4.10;3.80;;;11.60;99.90;;;;;;484757;244;28746;-70
2021/09/14 05:31:51;;;;;;;4.70;4.30;;;11.60;99.90;;;;;;484847;244;28629;-70
2021/09/14 05:33:52;;;;;;;3.90;3.60;;;11.60;99.90;;;;;;484826;244;28803;-70
2021/09/14 05:35:53;;;;;;;3.97;3.57;;;11.60;99.90;;;;;;484813;244;28814;-70
2021/09/14 05:37:55;;;;;;;4.60;4.20;;;11.60;99.90;;;;;;484836;244;28123;-70
2021/09/14 05:39:56;;;;;;;4.30;4.00;;;11.70;99.90;;;;;;484809;244;28222;-70
2021/09/14 05:41:57;;;;;;;4.10;3.80;;;11.70;99.90;;;;;;484859;244;27968;-70
2021/09/14 05:43:58;;;;;;;5.30;3.97;;;11.60;99.90;;;;;;484820;244;28197;-70
2021/09/14 05:46:00;;;;;;;4.27;3.97;;;11.60;99.90;;;;;;484810;244;28181;-70
2021/09/14 05:48:01;;;;;;;5.00;3.87;;;11.60;99.90;;;;;;484823;244;28220;-70
2021/09/14 05:50:02;;;;;;;3.43;3.13;;;11.60;99.90;;;;;;484834;244;28134;-70
2021/09/14 05:52:03;;;;;;;4.30;3.90;;;11.70;99.90;;;;;;484827;244;28098;-70
2021/09/14 05:54:05;;;;;;;4.37;3.97;;;11.70;99.90;;;;;;484787;244;28360;-70
2021/09/14 05:56:06;;;;;;;4.20;3.77;;;11.70;99.90;;;;;;484812;244;28749;-70
2021/09/14 05:58:07;;;;;;;4.00;3.70;;;11.80;99.90;;;;;;484804;244;28890;-70
2021/09/14 06:00:08;;;;;;;4.70;4.20;;;11.80;99.90;;;;;;484818;244;28667;-70
2021/09/14 06:02:10;;;;;;;4.80;4.17;;;11.90;99.90;;;;;;484848;244;28528;-69
2021/09/14 06:04:11;;;;;;;4.60;3.97;;;11.80;99.90;;;;;;484835;244;28087;-70
2021/09/14 06:06:12;;;;;;;4.60;4.20;;;11.80;99.90;;;;;;484847;244;28091;-70
2021/09/14 06:08:13;;;;;;;4.00;3.70;;;11.80;99.90;;;;;;484835;244;28153;-70
2021/09/14 06:10:15;;;;;;;4.27;3.97;;;11.90;99.90;;;;;;484843;244;28149;-70
2021/09/14 06:12:16;;;;;;;4.80;4.40;;;12.00;99.90;;;;;;484837;244;28242;-70
2021/09/14 06:14:17;;;;;;;4.20;3.90;;;12.00;99.90;;;;;;484798;244;28100;-69
2021/09/14 06:16:18;;;;;;;6.47;3.77;;;12.10;99.90;;;;;;484851;244;27840;-70
2021/09/14 06:18:20;;;;;;;4.53;4.10;;;12.20;99.90;;;;;;484756;244;28303;-70
2021/09/14 06:20:21;;;;;;;3.83;3.50;;;12.30;99.90;;;;;;484793;244;28880;-70
2021/09/14 06:22:22;;;;;;;3.67;3.37;;;12.30;99.90;;;;;;484817;244;28925;-70
2021/09/14 06:24:23;;;;;;;4.53;4.13;;;12.40;99.90;;;;;;484818;244;28822;-70
2021/09/14 06:26:25;;;;;;;4.17;3.87;;;12.50;99.90;;;;;;484849;244;28737;-70
2021/09/14 06:28:26;;;;;;;4.50;4.13;;;12.60;99.90;;;;;;484822;244;28217;-70
2021/09/14 06:30:27;;;;;;;4.00;3.70;;;12.60;99.90;;;;;;484841;244;28328;-70
2021/09/14 06:32:28;;;;;;;4.00;3.70;;;12.70;99.90;;;;;;484829;244;28170;-70
2021/09/14 06:34:30;;;;;;;4.10;3.80;;;12.70;99.90;;;;;;484806;244;28357;-70
2021/09/14 06:36:31;;;;;;;4.53;4.03;;;12.80;99.90;;;;;;484830;244;28066;-71
2021/09/14 06:38:32;;;;;;;4.30;4.00;;;12.90;99.90;;;;;;484817;244;28491;-69
2021/09/14 06:40:33;;;;;;;4.40;4.00;;;13.00;99.90;;;;;;484822;244;28765;-70
2021/09/14 06:42:35;;;;;;;5.00;4.50;;;13.00;99.90;;;;;;484827;244;28869;-70
2021/09/14 06:44:36;;;;;;;4.37;3.97;;;13.10;99.90;;;;;;484805;244;29231;-71
2021/09/14 06:46:37;;;;;;;3.97;3.67;;;13.10;99.90;;;;;;484796;244;28555;-70
2021/09/14 06:48:40;;;;;;;4.10;3.80;;;;;;;;;;484788;244;28818;-70
2021/09/14 06:50:42;;;;;;;4.03;3.73;;;;;;;;;;485867;244;26837;-70
2021/09/14 06:52:46;;;;;;;4.33;3.93;;;13.30;99.90;;;;;;485909;243;27055;-71
2021/09/14 06:54:45;;;;;;;4.50;4.20;;;13.40;99.90;;;;;;485772;245;28179;-71
2021/09/14 06:56:46;;;;;;;4.20;3.90;;;13.40;99.90;;;;;;485903;243;28303;-70
2021/09/14 06:58:48;;;;;;;4.40;4.10;;;;;;;;;;485880;243;28218;-71
2021/09/14 07:00:49;;;;;;;4.10;3.80;;;13.60;99.90;;;;;;485934;243;27263;-70
2021/09/14 07:02:51;;;;;;;3.97;3.60;;;13.70;99.90;;;;;;485873;243;28550;-70
2021/09/14 07:04:53;;;;;;;4.33;3.87;;;13.80;99.90;;;;;;485882;243;28105;-70
2021/09/14 07:06:53;;;;;;;4.20;3.90;;;13.90;99.90;;;;;;485825;245;28362;-70
2021/09/14 07:08:55;;;;;;;3.80;3.50;;;14.00;99.90;;;;;;485905;243;28108;-70
2021/09/14 07:10:56;;;;;;;4.10;3.70;;;14.10;99.90;;;;;;485918;243;28262;-70
2021/09/14 07:12:57;;;;;;;3.70;3.50;;;14.20;99.90;;;;;;485902;243;28489;-70
2021/09/14 07:14:59;;;;;;;4.60;3.33;;;14.40;99.90;;;;;;485874;243;28436;-71
2021/09/14 07:16:59;;;;;;;3.87;3.57;;;14.50;99.90;;;;;;485886;243;28184;-70
2021/09/14 07:19:01;;;;;;;3.33;3.13;;;14.60;99.90;;;;;;485897;243;28438;-70
2021/09/14 07:21:02;;;;;;;3.87;3.57;;;14.70;99.90;;;;;;485895;243;29910;-70
2021/09/14 07:23:03;;;;;;;4.20;3.90;;;14.90;99.90;;;;;;485919;243;29236;-70
2021/09/14 07:25:04;;;;;;;3.83;3.50;;;15.00;99.90;;;;;;485890;243;29084;-70
2021/09/14 07:27:06;;;;;;;4.07;3.77;;;15.20;99.90;;;;;;485951;243;29156;-72
2021/09/14 07:29:07;;;;;;;3.93;3.63;;;15.30;99.90;;;;;;485896;243;28932;-72
2021/09/14 07:31:11;;;;;;;4.43;4.13;;;15.50;99.90;;;;;;485919;243;28733;-70
2021/09/14 07:33:10;;;;;;;4.07;3.77;;;15.60;99.90;;;;;;485837;243;28717;-70
2021/09/14 07:35:11;;;;;;;3.90;3.60;;;15.70;99.90;;;;;;485896;243;28759;-70
2021/09/14 07:37:12;;;;;;;3.63;3.40;;;15.70;99.90;;;;;;485918;243;28705;-70
2021/09/14 07:39:13;;;;;;;4.40;4.10;;;15.70;99.90;;;;;;485900;243;28970;-70
2021/09/14 07:41:15;;;;;;;4.00;3.70;;;15.80;99.90;;;;;;485904;243;28704;-69
2021/09/14 07:43:16;;;;;;;3.63;3.43;;;15.90;99.90;;;;;;485797;243;28822;-71
2021/09/14 07:45:17;;;;;;;4.63;4.30;;;15.80;99.90;;;;;;485907;243;29321;-70
2021/09/14 07:47:18;;;;;;;4.30;4.00;;;15.90;99.90;;;;;;485911;243;29144;-70
2021/09/14 07:49:20;;;;;;;4.40;4.00;;;15.90;99.90;;;;;;485833;243;29441;-70
2021/09/14 07:51:22;;;;;;;4.03;3.73;;;15.90;99.90;;;;;;485912;243;29224;-70
2021/09/14 07:53:22;;;;;;;4.37;4.00;;;15.90;99.90;;;;;;485864;243;28776;-70
2021/09/14 07:55:23;;;;;;;3.90;3.60;;;16.00;99.90;;;;;;485945;243;28760;-70
2021/09/14 07:57:25;;;;;;;3.80;3.60;;;16.00;99.90;;;;;;485983;243;28716;-70
2021/09/14 07:59:26;;;;;;;4.10;3.80;;;16.00;99.90;;;;;;485898;243;28741;-70
2021/09/14 08:01:27;;;;;;;3.80;3.60;;;16.00;99.90;;;;;;485918;243;28725;-70
2021/09/14 08:03:28;;;;;;;3.57;3.37;;;16.10;99.90;;;;;;485919;243;28716;-70
2021/09/14 08:05:30;;;;;;;4.00;3.70;;;16.10;99.90;;;;;;485925;243;28749;-70
2021/09/14 08:07:31;;;;;;;3.93;3.63;;;16.20;99.90;;;;;;485924;243;28717;-70
2021/09/14 08:09:32;;;;;;;3.80;3.50;;;16.20;99.90;;;;;;485912;243;28852;-71
2021/09/14 08:11:33;;;;;;;3.93;3.63;;;16.30;99.90;;;;;;485891;243;29667;-71
2021/09/14 08:13:35;;;;;;;4.10;3.80;;;16.30;99.90;;;;;;485875;243;29174;-69
2021/09/14 08:15:37;;;;;;;3.70;3.50;;;16.30;99.90;;;;;;485887;243;29269;-70
2021/09/14 08:17:37;;;;;;;4.77;4.30;;;16.40;99.90;;;;;;485855;243;28816;-70
2021/09/14 08:19:41;;;;;;;4.00;3.70;;;16.40;99.90;;;;;;485840;243;28868;-70
2021/09/14 08:21:40;;;;;;;4.10;3.73;;;16.60;99.90;;;;;;485671;245;28780;-72
2021/09/14 08:23:41;;;;;;;3.77;3.47;;;16.60;99.90;;;;;;485859;243;28830;-71
2021/09/14 08:25:42;;;;;;;3.70;3.50;;;16.60;99.90;;;;;;485839;243;28835;-72
2021/09/14 08:27:43;;;;;;;4.33;3.93;;;16.80;99.90;;;;;;485886;243;29185;-72
2021/09/14 08:29:45;;;;;;;3.87;3.60;;;16.80;99.90;;;;;;485045;243;29228;-69
2021/09/14 08:31:46;;;;;;;4.40;4.00;;;16.80;99.90;;;;;;485785;243;29195;-70
2021/09/14 08:33:47;;;;;;;4.67;4.23;;;16.90;99.90;;;;;;485857;243;28717;-69
2021/09/14 08:35:48;;;;;;;3.87;3.57;;;17.00;99.90;;;;;;485781;243;29310;-70
2021/09/14 08:37:50;;;;;;;3.90;3.60;;;17.20;99.90;;;;;;485884;243;29185;-70
2021/09/14 08:39:51;;;;;;;3.90;3.60;;;17.40;99.90;;;;;;485822;243;29326;-70
2021/09/14 08:41:52;;;;;;;3.53;3.33;;;17.60;99.90;;;;;;485929;243;28740;-71
2021/09/14 08:43:53;;;;;;;3.70;3.40;;;17.60;99.90;;;;;;485907;243;28962;-73
2021/09/14 08:45:55;;;;;;;3.70;3.40;;;17.80;99.90;;;;;;485899;243;28761;-70
2021/09/14 08:47:56;;;;;;;4.27;3.97;;;17.90;99.90;;;;;;485887;243;28712;-72
2021/09/14 08:49:57;;;;;;;3.63;3.43;;;17.90;99.90;;;;;;485878;243;28827;-72
2021/09/14 08:51:58;;;;;;;4.07;3.77;;;17.90;99.90;;;;;;485918;243;28780;-72
2021/09/14 08:54:00;;;;;;;3.87;3.57;;;18.10;99.90;;;;;;485880;243;28716;-72
2021/09/14 08:56:01;;;;;;;3.97;3.67;;;18.10;99.90;;;;;;485903;243;28892;-70
2021/09/14 08:58:04;;;;;;;4.60;4.20;;;18.20;99.90;;;;;;485895;243;29276;-72
2021/09/14 09:00:03;;;;;;;4.60;4.20;;;18.20;99.90;;;;;;485775;245;29254;-69
2021/09/14 09:02:05;;;;;;;4.53;4.07;;;18.20;99.90;;;;;;485907;243;29414;-69
2021/09/14 09:04:07;;;;;;;4.10;3.80;;;18.30;99.90;;;;;;485908;243;28904;-70
2021/09/14 09:06:07;;;;;;;4.30;4.00;;;18.40;99.90;;;;;;485865;245;28763;-70
2021/09/14 09:08:08;;;;;;;4.17;3.57;;;18.50;99.90;;;;;;485947;243;28709;-71
2021/09/14 09:10:10;;;;;;;4.33;4.00;;;18.60;99.90;;;;;;485899;243;28820;-71
2021/09/14 09:12:11;;;;;;;3.67;3.40;;;18.70;99.90;;;;;;485897;243;28833;-71
2021/09/14 09:14:12;;;;;;;4.10;3.80;;;18.90;99.90;;;;;;485895;243;28720;-72
2021/09/14 09:16:13;;;;;;;4.83;4.43;;;18.90;99.90;;;;;;485907;243;29304;-71
2021/09/14 09:18:15;;;;;;;4.37;4.07;;;18.90;99.90;;;;;;485886;243;28816;-71
2021/09/14 09:20:16;;;;;;;3.97;3.67;;;18.90;99.90;;;;;;485851;243;28810;-72
2021/09/14 09:22:17;;;;;;;3.97;3.67;;;18.80;99.90;;;;;;485900;243;29223;-70
2021/09/14 09:24:21;;;;;;;3.30;3.07;;;18.90;99.90;;;;;;485911;243;29247;-70
2021/09/14 09:26:20;;;;;;;4.10;3.80;;;18.90;99.90;;;;;;485775;245;29245;-70
2021/09/14 09:28:21;;;;;;;3.97;3.70;;;19.10;99.90;;;;;;485953;243;29268;-71
2021/09/14 09:30:24;;;;;;;4.00;3.70;;;19.20;99.90;;;;;;485932;243;28714;-72
2021/09/14 09:32:23;;;;;;;4.03;3.73;;;19.30;99.90;;;;;;485825;245;29153;-72
2021/09/14 09:34:25;;;;;;;4.10;3.80;;;19.30;99.90;;;;;;485927;243;28804;-72
2021/09/14 09:36:26;;;;;;;4.17;3.83;;;19.40;99.90;;;;;;485934;243;28850;-70
2021/09/14 09:38:27;;;;;;;4.47;4.07;;;19.40;99.90;;;;;;485950;243;28709;-70
2021/09/14 09:40:30;;;;;;;4.63;4.23;;;19.40;99.90;;;;;;485895;243;28796;-72
2021/09/14 09:42:30;;;;;;;4.73;4.13;;;19.60;99.90;;;;;;485864;243;28696;-71
2021/09/14 09:44:31;;;;;;;4.30;3.90;;;19.60;99.90;;;;;;485939;243;28709;-71
2021/09/14 09:46:32;;;;;;;4.10;3.70;;;19.70;99.90;;;;;;485918;243;29212;-71
2021/09/14 09:48:33;;;;;;;4.33;3.93;;;19.90;99.90;;;;;;485910;243;29617;-71
2021/09/14 09:50:35;;;;;;;4.20;3.80;;;19.90;99.90;;;;;;485918;243;29243;-71
2021/09/14 09:52:36;;;;;;;4.30;3.90;;;20.00;99.90;;;;;;485919;243;29227;-70
2021/09/14 09:54:37;;;;;;;4.07;3.70;;;20.10;99.90;;;;;;485907;243;28747;-71
2021/09/14 09:56:38;;;;;;;4.50;4.10;;;20.10;99.90;;;;;;485872;243;28867;-71
2021/09/14 09:58:40;;;;;;;5.00;4.60;;;20.20;99.90;;;;;;485740;243;28875;-71
2021/09/14 10:00:41;;;;;;;4.57;4.17;;;20.30;99.90;;;;;;485892;243;28717;-72
2021/09/14 10:02:42;;;;;;;5.00;4.60;;;20.30;99.90;;;;;;485894;243;28914;-71
2021/09/14 10:04:43;;;;;;;4.17;3.83;;;20.40;99.90;;;;;;485381;243;28732;-72
2021/09/14 10:06:45;;;;;;;5.00;4.50;;;20.70;99.90;;;;;;485894;243;28757;-71
2021/09/14 10:08:46;;;;;;;4.53;4.13;;;20.70;99.90;;;;;;485930;243;28741;-71
2021/09/14 10:10:47;;;;;;;4.80;4.40;;;20.60;99.90;;;;;;485946;243;29256;-71
2021/09/14 10:12:48;;;;;;;4.70;4.27;;;20.60;99.90;;;;;;485920;243;29477;-71
2021/09/14 10:14:50;;;;;;;4.80;4.40;;;20.60;99.90;;;;;;485899;243;29315;-71
2021/09/14 10:16:51;;;;;;;4.53;4.13;;;20.60;99.90;;;;;;485913;243;29340;-71
2021/09/14 10:18:52;;;;;;;5.10;4.60;;;20.60;99.90;;;;;;485900;243;28740;-71
2021/09/14 10:20:53;;;;;;;4.53;3.97;;;20.70;99.90;;;;;;485905;243;28942;-71
2021/09/14 10:22:55;;;;;;;5.60;5.03;;;20.80;99.90;;;;;;485911;243;28830;-71
2021/09/14 10:24:59;;;;;;;4.53;4.13;;;21.00;99.90;;;;;;485909;243;28708;-71
2021/09/14 10:26:57;;;;;;;4.50;4.10;;;21.00;99.90;;;;;;485735;245;28738;-70
2021/09/14 10:28:58;;;;;;;5.13;4.20;;;20.80;99.90;;;;;;485894;243;29128;-71
2021/09/14 10:31:00;;;;;;;5.03;4.63;;;20.80;99.90;;;;;;485904;243;28816;-72
2021/09/14 10:33:01;;;;;;;5.07;4.57;;;20.80;99.90;;;;;;485889;243;28764;-72
2021/09/14 10:35:02;;;;;;;4.77;4.37;;;20.80;99.90;;;;;;485900;243;28726;-72
2021/09/14 10:37:03;;;;;;;4.90;4.50;;;20.70;99.90;;;;;;485902;243;29893;-71
2021/09/14 10:39:05;;;;;;;4.60;4.30;;;20.70;99.90;;;;;;485900;243;29303;-71
2021/09/14 10:41:06;;;;;;;4.50;4.13;;;20.60;99.90;;;;;;485915;243;29277;-70
2021/09/14 10:43:07;;;;;;;4.60;4.20;;;20.70;99.90;;;;;;485899;243;28739;-71
2021/09/14 10:45:08;;;;;;;4.77;4.30;;;20.60;99.90;;;;;;485912;243;28820;-71
2021/09/14 10:47:10;;;;;;;4.90;4.50;;;20.70;99.90;;;;;;485892;243;28752;-71
2021/09/14 10:49:11;;;;;;;4.57;4.17;;;20.80;99.90;;;;;;485835;243;28764;-71
2021/09/14 10:51:12;;;;;;;4.77;4.30;;;20.90;99.90;;;;;;485911;243;28724;-71
2021/09/14 10:53:13;;;;;;;3.93;3.63;;;20.80;99.90;;;;;;485884;243;29116;-71
2021/09/14 10:55:15;;;;;;;4.77;4.37;;;20.80;99.90;;;;;;485927;243;28781;-71
2021/09/14 10:57:16;;;;;;;4.33;4.03;;;20.80;99.90;;;;;;485910;243;28756;-71
2021/09/14 10:59:18;;;;;;;5.27;4.87;;;20.90;99.90;;;;;;485912;243;28772;-70
2021/09/14 11:01:27;;;;;;;4.87;4.43;;;21.00;99.90;;;;;;485905;243;29283;-71
2021/09/14 11:03:20;;;;;;;4.83;4.43;;;21.20;99.90;;;;;;484898;245;29313;-72
2021/09/14 11:05:21;;;;;;;4.27;3.97;;;21.60;99.90;;;;;;485938;243;29181;-72
2021/09/14 11:07:22;;;;;;;4.50;4.03;;;21.90;99.90;;;;;;485903;243;28836;-71
2021/09/14 11:09:23;;;;;;;3.90;3.60;;;22.00;99.90;;;;;;485940;243;28856;-71
2021/09/14 11:11:25;;;;;;;4.40;4.00;;;21.80;99.90;;;;;;485933;243;28717;-71
2021/09/14 11:13:26;;;;;;;4.20;3.90;;;21.70;99.90;;;;;;485938;243;28740;-71
2021/09/14 11:15:27;;;;;;;4.80;4.40;;;21.70;99.90;;;;;;485942;243;28832;-71
2021/09/14 11:17:28;;;;;;;4.63;4.33;;;21.70;99.90;;;;;;485917;243;28740;-71
2021/09/14 11:19:30;;;;;;;4.27;3.90;;;21.80;99.90;;;;;;485929;243;28863;-71
2021/09/14 11:21:31;;;;;;;4.47;4.17;;;21.90;99.90;;;;;;485949;243;28787;-71
2021/09/14 11:23:32;;;;;;;4.70;4.30;;;22.00;99.90;;;;;;485905;243;28754;-71
2021/09/14 11:25:33;;;;;;;4.53;4.17;;;22.30;99.90;;;;;;485910;243;29653;-71
2021/09/14 11:27:35;;;;;;;6.20;4.03;;;22.40;99.90;;;;;;485883;243;29275;-71
2021/09/14 11:29:36;;;;;;;4.30;3.90;;;22.60;99.90;;;;;;485936;243;29312;-72
2021/09/14 11:31:38;;;;;;;4.63;4.07;;;22.70;99.90;;;;;;485904;243;28708;-70
2021/09/14 11:33:38;;;;;;;4.47;4.00;;;22.80;99.90;;;;;;485893;243;28854;-71
2021/09/14 11:35:40;;;;;;;4.40;4.00;;;22.90;99.90;;;;;;485901;243;28827;-70
2021/09/14 11:37:41;;;;;;;5.10;4.70;;;22.90;99.90;;;;;;485884;243;28720;-70
2021/09/14 11:39:42;;;;;;;4.67;4.27;;;22.90;99.90;;;;;;485915;243;28795;-71
2021/09/14 11:41:44;;;;;;;6.53;4.77;;;22.90;99.90;;;;;;485901;243;28867;-71
2021/09/14 11:43:46;;;;;;;4.20;3.90;;;23.00;99.90;;;;;;485902;243;28856;-70
2021/09/14 11:45:46;;;;;;;5.10;4.67;;;22.90;99.90;;;;;;485860;243;28713;-71
2021/09/14 11:47:47;;;;;;;5.03;4.40;;;22.80;99.90;;;;;;485846;243;29326;-70
2021/09/14 11:49:48;;;;;;;5.00;4.60;;;22.70;99.90;;;;;;485901;243;29235;-71
2021/09/14 11:51:50;;;;;;;4.77;4.23;;;22.70;99.90;;;;;;485902;243;29195;-71
2021/09/14 11:53:51;;;;;;;4.50;4.13;;;22.80;99.90;;;;;;485402;243;28777;-71
2021/09/14 11:55:52;;;;;;;3.83;3.60;;;22.70;99.90;;;;;;484793;244;28793;-71
2021/09/14 11:57:54;;;;;;;4.83;4.43;;;22.70;99.90;;;;;;484804;244;29058;-71
2021/09/14 11:59:55;;;;;;;4.57;4.17;;;22.70;99.90;;;;;;484827;244;28825;-70
2021/09/14 12:01:56;;;;;;;4.53;4.13;;;22.70;99.90;;;;;;484838;244;28830;-71
2021/09/14 12:03:57;;;;;;;5.90;4.40;;;22.80;99.90;;;;;;484799;244;28864;-71
2021/09/14 12:05:59;;;;;;;5.37;4.90;;;22.70;99.90;;;;;;484785;244;28806;-71
2021/09/14 12:08:00;;;;;;;4.30;4.00;;;22.70;99.90;;;;;;484799;244;28709;-70
2021/09/14 12:10:01;;;;;;;4.70;4.30;;;22.80;99.90;;;;;;484821;244;28813;-71
2021/09/14 12:12:02;;;;;;;4.67;4.20;;;22.90;99.90;;;;;;484819;243;29201;-70
2021/09/14 12:14:04;;;;;;;4.60;4.20;;;23.10;99.90;;;;;;484808;244;29243;-71
2021/09/14 12:16:05;;;;;;;4.43;3.83;;;23.20;99.90;;;;;;484832;244;30074;-71
2021/09/14 12:18:06;;;;;;;4.33;4.03;;;23.20;99.90;;;;;;484807;244;28723;-71
2021/09/14 12:20:07;;;;;;;3.93;3.63;;;23.20;99.90;;;;;;484770;244;28745;-71
2021/09/14 12:22:10;;;;;;;4.20;3.80;;;23.20;99.90;;;;;;484799;244;28709;-71
2021/09/14 12:24:10;;;;;;;3.97;3.67;;;23.20;99.90;;;;;;484733;245;28745;-70
2021/09/14 12:26:11;;;;;;;4.00;3.70;;;23.20;99.90;;;;;;483969;244;29316;-71
2021/09/14 12:28:12;;;;;;;8.07;4.40;;;23.20;99.90;;;;;;484793;244;28733;-70
2021/09/14 12:30:14;;;;;;;4.67;4.27;;;23.20;99.90;;;;;;484790;244;28760;-70
2021/09/14 12:32:15;;;;;;;4.83;4.37;;;23.30;99.90;;;;;;484804;244;28705;-70
2021/09/14 12:34:16;;;;;;;5.77;4.63;;;23.30;99.90;;;;;;484838;244;28834;-71
2021/09/14 12:36:17;;;;;;;4.50;4.10;;;23.20;99.90;;;;;;484830;244;30080;-70
2021/09/14 12:38:19;;;;;;;4.37;3.97;;;23.20;99.90;;;;;;484819;244;29184;-72